Time;durP1;ratioP1;P1;durP2;ratioP2;P2;SDS_P1;SDS_P2;PMS_P1;PMS_P2;Temp;Humidity;BMP_temperature;BMP_pressure;BME280_temperature;BME280_humidity;BME280_pressure;Samples;Min_cycle;Max_cycle;Signal;HPM_P1;HPM_P2
2024/04/05 00:00:51;;;;;;;0.10;0.10;;;;;;;14.42;66.59;100986.09;5030073;28;20152;-80
2024/04/05 00:03:18;;;;;;;0.25;0.25;;;;;;;14.29;67.38;100998.06;5029952;28;20041;-82
2024/04/05 00:05:44;;;;;;;0.05;0.05;;;;;;;14.29;67.72;101014.94;5030225;28;20030;-79
2024/04/05 00:08:10;;;;;;;0.10;0.10;;;;;;;14.32;67.86;101003.31;5037990;28;20045;-81
2024/04/05 00:10:36;;;;;;;0.10;0.10;;;;;;;14.38;67.82;101013.75;5034489;28;20026;-80
2024/04/05 00:13:05;;;;;;;0.10;0.10;;;;;;;14.22;69.31;101021.41;5039227;28;20740;-82
2024/04/05 00:15:31;;;;;;;0.10;0.10;;;;;;;14.24;70.64;101015.09;5037308;28;20105;-79
2024/04/05 00:17:57;;;;;;;0.10;0.10;;;;;;;14.27;70.89;101010.56;5039231;28;20087;-80
2024/04/05 00:20:23;;;;;;;0.50;0.50;;;;;;;14.20;70.86;101005.44;5037955;28;20186;-79
2024/04/05 00:22:50;;;;;;;0.10;0.10;;;;;;;14.16;72.02;101001.16;5037485;28;20025;-79
2024/04/05 00:25:17;;;;;;;0.10;0.10;;;;;;;14.18;71.64;100998.41;5043875;28;20022;-79
2024/04/05 00:27:44;;;;;;;0.10;0.10;;;;;;;14.22;72.00;101000.94;5050719;28;20029;-79
2024/04/05 00:30:10;;;;;;;1.17;1.08;;;;;;;14.21;72.10;100993.00;5051836;28;20018;-80
2024/04/05 00:32:36;;;;;;;0.10;0.10;;;;;;;14.22;71.84;100995.63;5032965;28;20120;-79
2024/04/05 00:35:03;;;;;;;0.10;0.10;;;;;;;14.24;72.35;100988.44;5033866;28;20455;-82
2024/04/05 00:37:29;;;;;;;0.03;0.03;;;;;;;14.07;73.18;100990.78;5036024;28;20030;-80
2024/04/05 00:39:55;;;;;;;0.68;0.68;;;;;;;14.24;72.54;100985.78;5036039;28;20048;-82
2024/04/05 00:42:21;;;;;;;0.10;0.10;;;;;;;14.29;72.72;100995.41;5037976;28;20113;-80
2024/04/05 00:44:47;;;;;;;0.10;0.10;;;;;;;14.30;72.30;100979.38;5036643;28;20041;-80
2024/04/05 00:47:14;;;;;;;0.75;0.75;;;;;;;14.34;72.59;100977.47;5034254;28;20028;-81
2024/04/05 00:49:40;;;;;;;0.10;0.10;;;;;;;14.38;72.71;100976.44;5042498;28;20064;-80
2024/04/05 00:52:08;;;;;;;0.40;0.40;;;;;;;14.37;72.10;100970.25;5033852;28;20489;-82
2024/04/05 00:54:35;;;;;;;0.10;0.10;;;;;;;14.33;72.77;100975.72;5043068;28;20087;-80
2024/04/05 00:57:02;;;;;;;0.10;0.10;;;;;;;14.38;72.75;100981.75;5043643;28;20033;-81
2024/04/05 00:59:28;;;;;;;0.10;0.10;;;;;;;14.37;72.69;100985.38;5029900;28;20041;-81
2024/04/05 01:01:54;;;;;;;1.25;0.75;;;;;;;14.34;72.98;100985.47;5029157;28;20042;-81
2024/04/05 01:04:20;;;;;;;0.10;0.10;;;;;;;14.29;73.29;101000.75;5034128;28;20029;-79
2024/04/05 01:06:47;;;;;;;0.10;0.10;;;;;;;14.42;72.58;100995.88;5026119;28;20034;-80
2024/04/05 01:09:14;;;;;;;1.02;1.02;;;;;;;14.45;72.53;101003.78;5033490;28;20029;-81
2024/04/05 01:11:40;;;;;;;0.10;0.10;;;;;;;14.45;72.37;100999.31;5034979;28;20029;-81
2024/04/05 01:14:06;;;;;;;0.15;0.15;;;;;;;14.45;72.85;100996.63;5028907;28;20091;-81
2024/04/05 01:16:32;;;;;;;0.10;0.10;;;;;;;14.46;72.60;100969.06;5030281;28;20033;-80
2024/04/05 01:18:59;;;;;;;0.10;0.10;;;;;;;14.42;72.74;100972.75;5039757;28;20035;-80
2024/04/05 01:21:25;;;;;;;0.10;0.10;;;;;;;14.44;72.70;100980.69;5034350;28;20029;-81
2024/04/05 01:23:52;;;;;;;2.38;1.95;;;;;;;14.39;72.96;100967.53;5029868;28;20048;-81
2024/04/05 01:26:18;;;;;;;0.13;0.13;;;;;;;14.41;73.07;100987.00;5031416;28;20039;-78
2024/04/05 01:28:44;;;;;;;0.10;0.10;;;;;;;14.42;73.12;100983.44;5047014;28;20028;-78
2024/04/05 01:31:10;;;;;;;0.10;0.10;;;;;;;14.45;72.60;100985.13;5037603;28;20021;-82
2024/04/05 01:33:36;;;;;;;0.10;0.10;;;;;;;14.42;73.14;100980.75;5047661;28;20037;-80
2024/04/05 01:36:03;;;;;;;0.20;0.20;;;;;;;14.44;73.10;100992.22;5049247;28;20042;-80
2024/04/05 01:38:29;;;;;;;0.10;0.10;;;;;;;14.42;73.12;100979.88;5040445;28;20029;-79
2024/04/05 01:40:55;;;;;;;0.10;0.10;;;;;;;14.36;73.36;100978.31;5034429;28;20602;-80
2024/04/05 01:43:22;;;;;;;0.10;0.10;;;;;;;14.40;72.93;100975.50;5034947;28;20381;-80
2024/04/05 01:45:48;;;;;;;0.00;0.00;;;;;;;14.36;72.90;100972.97;5038947;28;20044;-83
2024/04/05 01:48:14;;;;;;;0.38;0.38;;;;;;;14.38;73.05;100976.44;5037504;28;20089;-81
2024/04/05 01:50:40;;;;;;;0.10;0.10;;;;;;;14.30;73.45;100983.84;5037302;28;20501;-82
2024/04/05 01:53:07;;;;;;;0.17;0.17;;;;;;;14.34;73.25;100988.13;5037893;28;20461;-82
2024/04/05 01:55:33;;;;;;;0.10;0.10;;;;;;;14.38;72.95;100980.00;5034779;28;20136;-81
2024/04/05 01:57:59;;;;;;;0.10;0.10;;;;;;;14.37;73.07;100978.25;5030036;28;20032;-79
2024/04/05 02:00:25;;;;;;;0.10;0.10;;;;;;;14.34;73.58;100977.47;5038064;28;20519;-80
2024/04/05 02:02:52;;;;;;;4.18;1.85;;;;;;;14.39;73.17;100972.84;5035332;28;20120;-81
2024/04/05 02:05:18;;;;;;;0.10;0.10;;;;;;;14.44;72.87;100981.56;5035666;28;20485;-81
2024/04/05 02:07:44;;;;;;;0.00;0.00;;;;;;;14.37;73.44;100974.72;5033438;28;20029;-79
2024/04/05 02:10:10;;;;;;;0.85;0.85;;;;;;;14.38;73.46;100974.66;5033674;28;20052;-80
2024/04/05 02:12:37;;;;;;;0.00;0.00;;;;;;;14.42;73.30;100971.88;5032770;28;20057;-80
2024/04/05 02:15:03;;;;;;;0.10;0.10;;;;;;;14.43;73.48;100963.84;5030647;28;20120;-82
2024/04/05 02:17:29;;;;;;;0.10;0.10;;;;;;;14.45;73.50;100955.78;5034984;28;20037;-79
2024/04/05 02:19:55;;;;;;;0.40;0.40;;;;;;;14.47;73.30;100957.47;5031508;28;20069;-81
2024/04/05 02:22:22;;;;;;;0.10;0.10;;;;;;;14.53;72.98;100954.59;5034135;28;20485;-82
2024/04/05 02:24:48;;;;;;;0.10;0.10;;;;;;;14.51;72.93;100945.78;5028635;28;20033;-81
2024/04/05 02:27:16;;;;;;;0.20;0.20;;;;;;;14.46;73.24;100953.06;5033269;28;20025;-80
2024/04/05 02:29:42;;;;;;;0.05;0.05;;;;;;;14.50;72.92;100954.69;5030121;28;20048;-82
2024/04/05 02:32:08;;;;;;;0.25;0.25;;;;;;;14.46;73.32;100953.06;5028187;28;20044;-83
2024/04/05 02:34:34;;;;;;;0.10;0.10;;;;;;;14.42;73.37;100962.09;5031953;28;20524;-83
2024/04/05 02:37:01;;;;;;;0.10;0.10;;;;;;;14.45;73.19;100951.31;5033491;28;20074;-81
2024/04/05 02:39:27;;;;;;;0.32;0.32;;;;;;;14.44;73.20;100954.91;5054251;28;20030;-79
2024/04/05 02:41:53;;;;;;;0.13;0.13;;;;;;;14.35;73.38;100956.09;5047826;28;20042;-80
2024/04/05 02:44:23;;;;;;;0.10;0.10;;;;;;;14.34;73.57;100948.16;5032364;28;20029;-80
2024/04/05 02:46:49;;;;;;;0.30;0.30;;;;;;;14.39;73.46;100940.88;5030604;28;20052;-80
2024/04/05 02:49:15;;;;;;;0.47;0.47;;;;;;;14.38;73.27;100939.13;5037339;28;20025;-79
2024/04/05 02:51:41;;;;;;;1.88;0.50;;;;;;;14.33;73.74;100935.75;5036212;28;20096;-80
2024/04/05 02:54:07;;;;;;;0.10;0.10;;;;;;;14.40;73.32;100931.94;5040067;28;20029;-80
2024/04/05 02:56:34;;;;;;;1.52;1.42;;;;;;;14.32;73.62;100926.88;5056203;28;20052;-81
2024/04/05 02:59:01;;;;;;;0.90;0.90;;;;;;;14.35;73.81;100920.56;5038001;28;20053;-80
2024/04/05 03:01:27;;;;;;;0.10;0.10;;;;;;;14.39;73.84;100917.75;5042153;28;20515;-81
2024/04/05 03:03:53;;;;;;;0.10;0.10;;;;;;;14.39;73.79;100916.88;5044699;28;20120;-80
2024/04/05 03:06:20;;;;;;;2.45;2.33;;;;;;;14.44;73.81;100920.25;5036831;28;20055;-82
2024/04/05 03:08:47;;;;;;;0.10;0.10;;;;;;;14.44;73.88;100912.25;5029532;28;20543;-81
2024/04/05 03:11:13;;;;;;;0.30;0.30;;;;;;;14.44;74.02;100914.91;5039404;28;20029;-84
2024/04/05 03:13:40;;;;;;;0.20;0.20;;;;;;;14.52;73.60;100910.19;5034325;28;20033;-83
2024/04/05 03:16:07;;;;;;;0.10;0.10;;;;;;;14.48;74.16;100919.22;5029439;28;20121;-82
2024/04/05 03:18:33;;;;;;;0.00;0.00;;;;;;;14.53;73.84;100917.28;5030750;28;20025;-82
2024/04/05 03:20:59;;;;;;;0.10;0.10;;;;;;;14.56;74.00;100922.47;5029603;28;20033;-82
2024/04/05 03:23:25;;;;;;;0.10;0.10;;;;;;;14.51;74.25;100918.25;5034696;28;20033;-81
2024/04/05 03:25:52;;;;;;;0.00;0.00;;;;;;;14.59;73.76;100920.63;5041318;28;20165;-81
2024/04/05 03:28:18;;;;;;;0.10;0.10;;;;;;;14.56;74.61;100916.28;5030838;28;20125;-82
2024/04/05 03:30:44;;;;;;;0.10;0.10;;;;;;;14.61;73.90;100908.13;5025743;28;20037;-82
2024/04/05 03:33:10;;;;;;;1.35;1.35;;;;;;;14.61;73.88;100902.81;5030916;28;20049;-82
2024/04/05 03:35:37;;;;;;;0.10;0.10;;;;;;;14.63;74.09;100903.59;5032762;28;20034;-81
2024/04/05 03:38:04;;;;;;;0.05;0.05;;;;;;;14.61;73.88;100898.31;5026428;28;20035;-81
2024/04/05 03:40:30;;;;;;;0.55;0.55;;;;;;;14.64;73.94;100897.34;5032263;28;20025;-80
2024/04/05 03:42:57;;;;;;;0.10;0.10;;;;;;;14.61;74.33;100890.31;5048940;28;20029;-83
2024/04/05 03:45:23;;;;;;;0.10;0.10;;;;;;;14.63;74.29;100891.16;5046312;28;20056;-79
2024/04/05 03:47:52;;;;;;;0.10;0.10;;;;;;;14.66;74.12;100887.53;5048113;28;20033;-79
2024/04/05 03:50:18;;;;;;;0.10;0.10;;;;;;;14.62;74.29;100878.75;5038659;28;20038;-81
2024/04/05 03:52:44;;;;;;;0.17;0.17;;;;;;;14.68;74.15;100888.38;5037652;28;20528;-80
2024/04/05 03:55:10;;;;;;;0.20;0.20;;;;;;;14.66;74.29;100890.19;5035472;28;20017;-82
2024/04/05 03:57:37;;;;;;;0.10;0.10;;;;;;;14.67;74.12;100894.63;5043430;28;20030;-81
2024/04/05 04:00:06;;;;;;;4.90;1.38;;;;;;;14.66;74.23;100892.88;5038995;28;20028;-80
2024/04/05 04:02:32;;;;;;;0.00;0.00;;;;;;;14.66;74.08;100880.41;5033739;28;20489;-82
2024/04/05 04:04:58;;;;;;;0.10;0.10;;;;;;;14.69;73.67;100868.75;5032956;28;20045;-83
2024/04/05 04:07:24;;;;;;;0.10;0.10;;;;;;;14.68;73.83;100873.22;5037049;28;20029;-83
2024/04/05 04:09:51;;;;;;;0.00;0.00;;;;;;;14.69;73.92;100864.28;5048218;28;20044;-82
2024/04/05 04:12:18;;;;;;;0.80;0.80;;;;;;;14.64;74.12;100860.91;5040187;28;20520;-81
2024/04/05 04:14:44;;;;;;;0.10;0.10;;;;;;;14.65;74.06;100835.13;5037459;28;20389;-81
2024/04/05 04:17:10;;;;;;;0.63;0.63;;;;;;;14.67;73.60;100851.94;5036098;28;20064;-83
2024/04/05 04:19:37;;;;;;;0.10;0.10;;;;;;;14.65;73.46;100843.13;5042975;28;20485;-81
2024/04/05 04:22:03;;;;;;;0.30;0.30;;;;;;;14.64;73.70;100841.34;5037627;28;21242;-83
2024/04/05 04:24:29;;;;;;;0.03;0.03;;;;;;;14.59;73.85;100851.31;5037322;28;20033;-83
2024/04/05 04:26:56;;;;;;;0.40;0.40;;;;;;;14.57;73.81;100836.25;5037627;28;20556;-81
2024/04/05 04:29:22;;;;;;;0.10;0.10;;;;;;;14.55;73.70;100834.56;5042380;28;20040;-81
2024/04/05 04:31:48;;;;;;;0.10;0.10;;;;;;;14.52;73.71;100838.22;5041307;28;20036;-81
2024/04/05 04:34:14;;;;;;;0.10;0.10;;;;;;;14.47;73.84;100832.19;5040173;28;20121;-81
2024/04/05 04:36:41;;;;;;;0.08;0.08;;;;;;;14.41;74.13;100827.06;5038973;28;20029;-82
2024/04/05 04:39:08;;;;;;;0.10;0.10;;;;;;;14.36;74.04;100829.88;5041478;28;20034;-81
2024/04/05 04:41:35;;;;;;;0.05;0.05;;;;;;;14.35;73.89;100827.28;5039394;28;20026;-80
2024/04/05 04:44:03;;;;;;;0.10;0.10;;;;;;;14.32;74.02;100836.28;5042805;28;20055;-82
2024/04/05 04:46:29;;;;;;;0.17;0.17;;;;;;;14.31;74.26;100831.84;5036158;28;20033;-82
2024/04/05 04:48:57;;;;;;;0.10;0.10;;;;;;;14.32;74.34;100833.59;5043503;28;20602;-82
2024/04/05 04:51:23;;;;;;;0.10;0.10;;;;;;;14.30;74.01;100839.91;5040997;28;20082;-81
2024/04/05 04:53:50;;;;;;;0.10;0.10;;;;;;;14.27;74.11;100845.34;5056703;28;20085;-79
2024/04/05 04:56:16;;;;;;;0.10;0.10;;;;;;;14.22;74.17;100833.06;5057614;28;20025;-81
2024/04/05 04:58:43;;;;;;;0.35;0.35;;;;;;;14.17;74.20;100829.69;5031628;28;20061;-81
2024/04/05 05:01:10;;;;;;;0.00;0.00;;;;;;;14.10;74.33;100822.81;5036348;28;20033;-82
2024/04/05 05:03:36;;;;;;;0.15;0.15;;;;;;;14.05;74.73;100828.31;5032153;28;20441;-80
2024/04/05 05:06:03;;;;;;;0.17;0.17;;;;;;;14.02;75.19;100824.91;5041034;28;20048;-80
2024/04/05 05:08:29;;;;;;;0.00;0.00;;;;;;;14.01;75.51;100815.16;5044191;28;20489;-84
2024/04/05 05:10:55;;;;;;;0.10;0.10;;;;;;;14.06;75.25;100816.72;5045517;28;20033;-83
2024/04/05 05:13:22;;;;;;;0.00;0.00;;;;;;;14.11;75.13;100818.38;5035210;28;20109;-82
2024/04/05 05:15:48;;;;;;;0.13;0.13;;;;;;;14.08;75.38;100812.22;5034785;28;20562;-84
2024/04/05 05:18:14;;;;;;;0.10;0.10;;;;;;;14.13;75.20;100812.09;5031155;28;20129;-82
2024/04/05 05:20:48;;;;;;;0.10;0.10;;;;;;;14.19;75.14;100800.31;5039938;28;20574;-80
2024/04/05 05:23:15;;;;;;;0.57;0.57;;;;;;;14.16;75.25;100800.44;5032505;28;20059;-82
2024/04/05 05:25:43;;;;;;;0.20;0.20;;;;;;;14.17;75.15;100792.38;5061285;28;20063;-82
2024/04/05 05:28:10;;;;;;;0.10;0.10;;;;;;;14.15;75.12;100788.91;5045461;28;20048;-81
2024/04/05 05:30:37;;;;;;;0.10;0.10;;;;;;;14.18;75.41;100782.59;5043520;28;20041;-81
2024/04/05 05:33:04;;;;;;;0.10;0.10;;;;;;;14.22;75.29;100787.75;5032715;28;21013;-81
2024/04/05 05:35:30;;;;;;;0.10;0.10;;;;;;;14.24;75.50;100785.91;5045565;28;20398;-82
2024/04/05 05:37:57;;;;;;;0.10;0.10;;;;;;;14.29;75.42;100784.88;5039921;28;20026;-82
2024/04/05 05:40:23;;;;;;;0.10;0.10;;;;;;;14.30;75.40;100786.63;5040393;28;20543;-81
2024/04/05 05:42:49;;;;;;;0.10;0.10;;;;;;;14.32;75.30;100790.97;5034681;28;20112;-83
2024/04/05 05:45:15;;;;;;;0.10;0.10;;;;;;;14.32;75.55;100785.63;5040473;28;20127;-81
2024/04/05 05:47:42;;;;;;;0.00;0.00;;;;;;;14.36;75.56;100787.25;5035195;28;20051;-82
2024/04/05 05:50:09;;;;;;;2.65;2.45;;;;;;;14.35;75.89;100784.66;5035740;28;20048;-82
2024/04/05 05:52:36;;;;;;;1.17;1.08;;;;;;;14.44;75.81;100786.97;5037207;28;20072;-83
2024/04/05 05:55:02;;;;;;;0.10;0.10;;;;;;;14.50;75.40;100777.88;5053647;28;20092;-81
2024/04/05 05:57:29;;;;;;;0.40;0.40;;;;;;;14.55;75.45;100778.56;5043326;28;20045;-84
2024/04/05 05:59:55;;;;;;;0.10;0.10;;;;;;;14.54;75.59;100775.03;5057104;28;20064;-82
2024/04/05 06:02:21;;;;;;;0.45;0.45;;;;;;;14.57;75.56;100768.72;5044900;28;20041;-83
2024/04/05 06:04:47;;;;;;;0.10;0.10;;;;;;;14.63;75.57;100763.16;5045784;28;20515;-83
2024/04/05 06:07:13;;;;;;;0.43;0.43;;;;;;;14.70;75.15;100761.16;5042573;28;20373;-83
2024/04/05 06:09:50;;;;;;;0.10;0.10;;;;;;;14.75;75.37;100759.16;5045846;28;20087;-82
2024/04/05 06:12:16;;;;;;;0.10;0.10;;;;;;;14.76;75.26;100744.91;5034937;28;20079;-84
2024/04/05 06:14:43;;;;;;;0.10;0.10;;;;;;;14.81;75.12;100750.06;5031532;28;20033;-84
2024/04/05 06:17:09;;;;;;;0.63;0.63;;;;;;;14.84;75.10;100760.59;5023303;28;20040;-82
2024/04/05 06:19:38;;;;;;;0.20;0.20;;;;;;;14.88;75.18;100755.09;5026323;28;20160;-84
2024/04/05 06:22:04;;;;;;;0.10;0.10;;;;;;;14.87;75.34;100755.16;5024963;28;20037;-83
2024/04/05 06:24:30;;;;;;;0.10;0.10;;;;;;;14.95;74.92;100741.53;5032371;28;20033;-85
2024/04/05 06:26:57;;;;;;;0.10;0.10;;;;;;;14.98;75.04;100741.41;5040828;28;20096;-82
2024/04/05 06:29:24;;;;;;;0.10;0.10;;;;;;;15.00;74.98;100739.53;5033754;28;20037;-84
2024/04/05 06:31:50;;;;;;;0.10;0.10;;;;;;;15.05;74.87;100726.88;5029223;28;20079;-83
2024/04/05 06:34:16;;;;;;;2.45;0.63;;;;;;;15.10;74.80;100722.22;5034090;28;20112;-82
2024/04/05 06:36:42;;;;;;;0.10;0.10;;;;;;;15.16;74.72;100716.63;5026145;28;20061;-82
2024/04/05 06:39:09;;;;;;;0.20;0.20;;;;;;;15.22;74.50;100693.31;5026835;28;20044;-83
2024/04/05 06:41:35;;;;;;;0.10;0.10;;;;;;;15.23;74.91;100692.34;5034107;28;20402;-81
2024/04/05 06:44:01;;;;;;;0.40;0.40;;;;;;;15.29;74.51;100681.41;5028465;28;20125;-81
2024/04/05 06:46:27;;;;;;;0.10;0.10;;;;;;;15.29;74.81;100682.31;5031223;28;20068;-84
2024/04/05 06:48:53;;;;;;;0.35;0.35;;;;;;;15.36;74.71;100680.22;5033459;28;20054;-83
2024/04/05 06:51:20;;;;;;;0.40;0.40;;;;;;;15.37;74.32;100679.28;5037265;28;20056;-84
2024/04/05 06:53:50;;;;;;;0.45;0.45;;;;;;;15.47;74.29;100672.63;5027175;28;20033;-84
2024/04/05 06:56:17;;;;;;;0.20;0.20;;;;;;;15.50;74.24;100677.84;5037019;28;20074;-82
2024/04/05 06:58:43;;;;;;;0.10;0.10;;;;;;;15.57;74.43;100666.91;5034506;28;20032;-83
2024/04/05 07:01:09;;;;;;;0.10;0.10;;;;;;;15.59;74.07;100651.66;5025817;28;20025;-84
2024/04/05 07:03:35;;;;;;;0.10;0.10;;;;;;;15.62;74.07;100663.06;5034434;28;20029;-84
2024/04/05 07:06:03;;;;;;;0.10;0.10;;;;;;;15.62;74.04;100647.06;5058372;28;20037;-83
2024/04/05 07:08:31;;;;;;;0.43;0.43;;;;;;;15.66;73.65;100637.09;5050318;28;20794;-83
2024/04/05 07:10:57;;;;;;;0.10;0.10;;;;;;;15.64;73.58;100633.66;5034551;28;20029;-83
2024/04/05 07:13:24;;;;;;;0.20;0.20;;;;;;;15.65;73.63;100643.38;5036447;28;20096;-86
2024/04/05 07:15:51;;;;;;;0.13;0.13;;;;;;;15.63;73.38;100631.91;5035931;28;20095;-80
2024/04/05 07:18:22;;;;;;;0.08;0.08;;;;;;;15.60;73.61;100640.03;5039274;28;20481;-83
2024/04/05 07:20:48;;;;;;;0.20;0.20;;;;;;;15.61;73.46;100657.81;5034352;28;20485;-80
2024/04/05 07:23:14;;;;;;;0.10;0.10;;;;;;;15.59;73.85;100667.69;5038347;28;20616;-84
2024/04/05 07:25:40;;;;;;;0.10;0.10;;;;;;;15.56;73.91;100663.34;5038191;28;20032;-82
2024/04/05 07:28:07;;;;;;;0.43;0.43;;;;;;;15.56;73.93;100655.34;5029794;28;20037;-82
2024/04/05 07:30:35;;;;;;;1.30;1.25;;;;;;;15.58;74.03;100634.78;5048470;28;20094;-81
2024/04/05 07:33:01;;;;;;;0.10;0.10;;;;;;;15.49;74.44;100622.69;5035074;28;20029;-83
2024/04/05 07:35:27;;;;;;;1.52;1.48;;;;;;;15.50;74.32;100611.09;5042133;28;20029;-83
2024/04/05 07:37:55;;;;;;;0.10;0.10;;;;;;;15.51;74.60;100590.59;5033991;28;20093;-83
2024/04/05 07:40:23;;;;;;;0.10;0.10;;;;;;;15.50;74.34;100584.38;5031898;28;20033;-84
2024/04/05 07:42:52;;;;;;;0.47;0.45;;;;;;;15.51;74.59;100575.44;5032192;28;20093;-84
2024/04/05 07:45:20;;;;;;;0.10;0.10;;;;;;;15.48;74.85;100580.06;5032588;28;20075;-84
2024/04/05 07:47:48;;;;;;;0.05;0.05;;;;;;;15.49;74.82;100569.31;5025483;28;20037;-83
2024/04/05 07:50:18;;;;;;;0.10;0.10;;;;;;;15.52;75.13;100563.81;5040874;28;20053;-84
2024/04/05 07:52:45;;;;;;;0.17;0.17;;;;;;;15.59;74.96;100560.84;5035285;28;20038;-85
2024/04/05 07:55:11;;;;;;;0.10;0.10;;;;;;;15.71;74.84;100554.97;5042286;28;20013;-84
2024/04/05 07:57:38;;;;;;;0.10;0.10;;;;;;;15.77;74.44;100554.69;5042019;28;20034;-83
2024/04/05 08:00:05;;;;;;;0.10;0.10;;;;;;;15.78;74.25;100571.59;5037344;28;20040;-82
2024/04/05 08:02:32;;;;;;;0.20;0.20;;;;;;;15.78;74.26;100577.78;5029603;28;20029;-81
2024/04/05 08:04:59;;;;;;;0.10;0.10;;;;;;;15.81;73.60;100588.34;5026816;28;20115;-82
2024/04/05 08:07:26;;;;;;;0.10;0.10;;;;;;;15.84;73.72;100596.25;5029079;28;20037;-81
2024/04/05 08:09:53;;;;;;;0.10;0.10;;;;;;;15.85;73.40;100592.63;5053242;28;20022;-80
2024/04/05 08:12:19;;;;;;;0.15;0.15;;;;;;;15.81;73.27;100593.69;5050829;28;20014;-82
2024/04/05 08:14:46;;;;;;;0.10;0.10;;;;;;;15.91;72.86;100603.97;5040922;28;20085;-82
2024/04/05 08:17:12;;;;;;;0.00;0.00;;;;;;;15.94;73.01;100603.84;5046365;28;20025;-82
2024/04/05 08:19:39;;;;;;;0.10;0.10;;;;;;;15.96;72.93;100600.16;5030758;28;20053;-81
2024/04/05 08:22:06;;;;;;;0.10;0.10;;;;;;;15.92;72.96;100608.38;5037330;28;20049;-82
2024/04/05 08:24:34;;;;;;;0.10;0.10;;;;;;;15.92;72.88;100627.09;5027989;28;20038;-82
2024/04/05 08:27:00;;;;;;;0.20;0.20;;;;;;;15.92;72.96;100632.44;5024805;28;20036;-81
2024/04/05 08:29:27;;;;;;;0.10;0.10;;;;;;;15.93;73.17;100632.34;5025853;28;20029;-82
2024/04/05 08:31:53;;;;;;;0.10;0.10;;;;;;;15.95;73.11;100633.16;5029727;28;20037;-81
2024/04/05 08:34:20;;;;;;;0.10;0.10;;;;;;;15.99;73.48;100633.88;5032714;28;20030;-84
2024/04/05 08:36:48;;;;;;;0.10;0.10;;;;;;;16.00;73.47;100624.94;5032696;28;20043;-82
2024/04/05 08:39:18;;;;;;;0.10;0.10;;;;;;;16.03;73.44;100646.16;5030448;28;20057;-81
2024/04/05 08:41:47;;;;;;;0.30;0.30;;;;;;;15.96;73.37;100639.34;5041887;28;20025;-81
2024/04/05 08:44:14;;;;;;;0.10;0.10;;;;;;;16.02;73.55;100636.41;5038905;28;20029;-81
2024/04/05 08:46:41;;;;;;;0.10;0.10;;;;;;;15.98;73.29;100635.66;5035733;28;20029;-81
2024/04/05 08:49:07;;;;;;;0.10;0.10;;;;;;;15.95;73.69;100637.63;5031577;28;20037;-81
2024/04/05 08:51:34;;;;;;;0.45;0.45;;;;;;;15.98;73.46;100642.84;5032825;28;20036;-81
2024/04/05 08:54:01;;;;;;;0.10;0.10;;;;;;;15.97;73.23;100641.94;5032609;28;20400;-82
2024/04/05 08:56:29;;;;;;;0.10;0.10;;;;;;;15.93;73.45;100650.19;5040458;28;20532;-84
2024/04/05 08:58:59;;;;;;;0.10;0.10;;;;;;;15.96;73.15;100639.34;5036308;28;20029;-81
2024/04/05 09:01:26;;;;;;;0.10;0.10;;;;;;;15.89;73.58;100643.25;5037346;28;20025;-81
2024/04/05 09:03:52;;;;;;;0.10;0.10;;;;;;;15.80;74.00;100640.03;5033834;28;20084;-81
2024/04/05 09:06:19;;;;;;;0.32;0.32;;;;;;;15.87;74.05;100629.09;5040491;28;20021;-82
2024/04/05 09:08:52;;;;;;;0.57;0.57;;;;;;;15.89;73.79;100627.22;5032800;28;20033;-82
2024/04/05 09:11:22;;;;;;;0.52;0.52;;;;;;;15.90;73.81;100639.63;5031872;28;20501;-82
2024/04/05 09:16:32;;;;;;;0.10;0.10;;;;;;;15.92;74.38;100640.44;5133516;27;20394;-79
2024/04/05 09:19:10;;;;;;;0.10;0.10;;;;;;;15.98;74.02;100640.16;5120458;28;20077;-80
2024/04/05 09:21:43;;;;;;;0.25;0.25;;;;;;;15.96;74.57;100639.34;5106282;28;20020;-81
2024/04/05 09:24:09;;;;;;;0.10;0.10;;;;;;;15.94;74.43;100623.41;5086101;28;20040;-80
2024/04/05 09:26:35;;;;;;;0.10;0.10;;;;;;;15.98;74.39;100610.78;5095500;28;20054;-80
2024/04/05 09:29:03;;;;;;;0.10;0.10;;;;;;;15.97;74.57;100601.88;5095133;28;20403;-82
2024/04/05 09:31:30;;;;;;;0.05;0.05;;;;;;;15.94;75.02;100595.81;5092968;28;20046;-80
2024/04/05 09:34:18;;;;;;;0.10;0.10;;;;;;;16.13;74.67;100598.50;5100485;28;20032;-80
2024/04/05 09:36:45;;;;;;;0.10;0.10;;;;;;;16.11;75.18;100614.63;5083052;28;20415;-82
2024/04/05 09:39:18;;;;;;;0.10;0.10;;;;;;;16.18;74.89;100613.34;5094369;28;20169;-83
2024/04/05 09:41:45;;;;;;;0.10;0.10;;;;;;;16.30;74.64;100603.91;5089427;28;20028;-83
2024/04/05 09:44:12;;;;;;;0.40;0.40;;;;;;;16.41;74.23;100600.72;5088995;28;20035;-83
2024/04/05 09:46:39;;;;;;;0.10;0.10;;;;;;;16.36;73.85;100592.03;5085947;28;20112;-83
2024/04/05 09:49:05;;;;;;;0.10;0.10;;;;;;;16.53;73.30;100593.03;5085977;28;20036;-80
2024/04/05 09:54:12;;;;;;;0.75;0.75;;;;;;;16.76;72.22;100589.22;5080798;27;1546251;-83
2024/04/05 09:56:39;;;;;;;0.10;0.10;;;;;;;16.82;72.03;100591.59;5130564;27;20035;-84
2024/04/05 09:59:29;;;;;;;3.00;2.13;;;;;;;16.87;70.92;100584.19;5125529;27;20398;-83
2024/04/05 10:01:55;;;;;;;0.10;0.10;;;;;;;16.85;70.67;100585.22;5102947;28;20028;-83
2024/04/05 10:04:22;;;;;;;0.00;0.00;;;;;;;16.88;70.66;100577.91;5098126;28;20032;-82
2024/04/05 10:06:49;;;;;;;0.10;0.10;;;;;;;16.90;70.72;100569.81;5097418;28;20024;-84
2024/04/05 10:09:18;;;;;;;0.20;0.20;;;;;;;16.90;70.38;100567.13;5102342;28;20031;-83
2024/04/05 10:11:46;;;;;;;0.68;0.68;;;;;;;16.93;70.12;100537.56;5100885;28;20039;-84
2024/04/05 10:14:28;;;;;;;0.10;0.10;;;;;;;17.03;70.36;100541.47;5109184;28;20533;-84
2024/04/05 10:17:06;;;;;;;0.10;0.10;;;;;;;17.04;70.47;100540.53;5109733;28;20024;-84
2024/04/05 10:19:37;;;;;;;28.33;1.40;;;;;;;17.00;70.71;100541.66;5116829;28;20076;-81
2024/04/05 10:22:08;;;;;;;0.20;0.20;;;;;;;16.95;70.18;100538.34;5127037;28;20044;-80
2024/04/05 10:24:36;;;;;;;1.13;1.10;;;;;;;16.97;70.21;100528.41;5129615;28;20024;-83
2024/04/05 10:27:04;;;;;;;0.10;0.10;;;;;;;17.06;69.96;100546.69;5105606;28;20032;-83
2024/04/05 10:29:33;;;;;;;0.10;0.10;;;;;;;17.08;69.32;100544.78;5113854;28;20024;-84
2024/04/05 10:32:09;;;;;;;0.20;0.20;;;;;;;17.21;69.31;100549.50;5109361;28;20019;-83
2024/04/05 10:34:38;;;;;;;0.08;0.08;;;;;;;17.18;69.02;100561.22;5112465;28;20024;-84
2024/04/05 10:37:13;;;;;;;0.15;0.15;;;;;;;17.06;67.89;100557.41;5107872;28;20032;-83
2024/04/05 10:39:48;;;;;;;0.22;0.22;;;;;;;17.28;68.27;100553.59;5106526;28;20055;-85
2024/04/05 10:42:24;;;;;;;0.10;0.10;;;;;;;17.40;67.64;100555.63;5103247;28;20483;-83
2024/04/05 10:44:55;;;;;;;0.10;0.10;;;;;;;17.46;67.85;100565.16;5103249;28;20173;-84
2024/04/05 10:47:21;;;;;;;0.10;0.10;;;;;;;17.55;68.42;100570.00;5109488;28;20028;-84
2024/04/05 10:49:58;;;;;;;0.10;0.10;;;;;;;17.53;68.10;100577.25;5106975;28;20479;-84
2024/04/05 10:52:25;;;;;;;0.10;0.10;;;;;;;17.48;67.56;100584.66;5101865;28;20020;-84
2024/04/05 10:54:51;;;;;;;0.10;0.10;;;;;;;17.48;67.57;100590.03;5104103;28;20052;-84
2024/04/05 10:57:18;;;;;;;0.10;0.10;;;;;;;17.31;67.84;100593.59;5101254;28;20107;-82
2024/04/05 10:59:45;;;;;;;0.10;0.10;;;;;;;17.22;68.82;100602.09;5108197;28;20399;-83
2024/04/05 11:02:11;;;;;;;0.10;0.10;;;;;;;17.05;69.20;100624.41;5103270;28;20516;-84
2024/04/05 11:04:38;;;;;;;0.20;0.20;;;;;;;16.92;70.19;100632.16;5102054;28;20546;-84
2024/04/05 11:07:04;;;;;;;0.10;0.10;;;;;;;16.82;70.69;100635.28;5096487;28;20047;-84
2024/04/05 11:09:35;;;;;;;0.10;0.10;;;;;;;16.79;71.31;100632.72;5097041;28;20024;-83
2024/04/05 11:12:02;;;;;;;0.10;0.10;;;;;;;16.67;72.02;100646.72;5099435;28;20027;-84
2024/04/05 11:14:28;;;;;;;0.10;0.10;;;;;;;16.67;72.31;100641.38;5097664;28;20123;-84
2024/04/05 11:17:00;;;;;;;0.10;0.10;;;;;;;16.59;72.86;100646.25;5090872;28;20020;-84
2024/04/05 11:19:27;;;;;;;0.63;0.63;;;;;;;16.57;72.75;100630.25;5094525;28;20032;-84
2024/04/05 11:22:02;;;;;;;1.73;1.63;;;;;;;16.46;73.67;100630.78;5094969;28;20102;-84
2024/04/05 11:24:28;;;;;;;0.43;0.43;;;;;;;16.46;73.65;100629.91;5099723;28;20027;-83
2024/04/05 11:26:54;;;;;;;0.65;0.60;;;;;;;16.55;73.98;100636.59;5117383;28;20110;-82
2024/04/05 11:29:20;;;;;;;0.10;0.10;;;;;;;16.56;73.91;100633.88;5097786;28;20040;-83